Time;durP1;ratioP1;P1;durP2;ratioP2;P2;SDS_P1;SDS_P2;PMS_P1;PMS_P2;Temp;Humidity;BMP_temperature;BMP_pressure;BME280_temperature;BME280_humidity;BME280_pressure;Samples;Min_cycle;Max_cycle;Signal;HPM_P1;HPM_P2
2023/01/22 00:00:34;;;;;;;13.98;8.52;;;;;;;1.04;100.00;101387.81;5067105;28;20049;-83
2023/01/22 00:03:01;;;;;;;13.02;7.93;;;;;;;0.77;100.00;101344.13;5078372;28;20073;-83
2023/01/22 00:05:27;;;;;;;13.07;8.30;;;;;;;0.85;100.00;101352.88;5078885;28;20052;-83
2023/01/22 00:07:54;;;;;;;15.43;8.75;;;;;;;1.09;100.00;101390.47;5073417;28;20053;-80
2023/01/22 00:10:21;;;;;;;14.80;8.18;;;;;;;0.95;100.00;101359.91;5055451;28;20121;-81
2023/01/22 00:12:49;;;;;;;12.40;7.70;;;;;;;0.32;100.00;101248.19;5082323;28;20064;-82
2023/01/22 00:15:15;;;;;;;11.85;7.00;;;;;;;1.11;100.00;101380.88;5072708;28;20135;-84
2023/01/22 00:17:42;;;;;;;13.10;7.95;;;;;;;0.84;100.00;101322.44;5052479;28;20045;-83
2023/01/22 00:20:11;;;;;;;13.27;7.88;;;;;;;0.76;100.00;101313.72;5077556;28;20044;-80
2023/01/22 00:22:37;;;;;;;12.93;7.80;;;;;;;0.93;100.00;101340.78;5078295;28;20048;-80
2023/01/22 00:25:04;;;;;;;14.63;7.43;;;;;;;0.76;100.00;101313.72;5074368;28;20417;-79
2023/01/22 00:27:31;;;;;;;13.43;8.10;;;;;;;0.70;100.00;101303.22;5075826;28;20126;-79
2023/01/22 00:29:58;;;;;;;15.35;8.15;;;;;;;0.69;100.00;101317.13;5068267;28;20055;-80
2023/01/22 00:32:24;;;;;;;13.27;7.28;;;;;;;0.95;100.00;101352.06;5060022;28;20063;-81
2023/01/22 00:34:53;;;;;;;13.75;7.85;;;;;;;-0.51;100.00;101090.44;5075797;28;20078;-80
2023/01/22 00:37:20;;;;;;;12.82;7.68;;;;;;;-0.88;100.00;101041.50;5075967;28;20048;-81
2023/01/22 00:39:46;;;;;;;15.90;8.25;;;;;;;0.95;100.00;101353.81;5075798;28;20052;-81
2023/01/22 00:42:13;;;;;;;15.02;8.50;;;;;;;-0.11;100.00;101180.13;5089243;28;20052;-82
2023/01/22 00:44:40;;;;;;;13.38;8.48;;;;;;;0.29;100.00;101238.66;5073651;28;20048;-81
2023/01/22 00:47:06;;;;;;;14.88;8.15;;;;;;;0.92;100.00;101353.81;5057119;28;20052;-81
2023/01/22 00:49:35;;;;;;;15.40;8.75;;;;;;;0.82;100.00;101328.50;5076014;28;20135;-79
2023/01/22 00:52:01;;;;;;;14.73;7.97;;;;;;;1.04;100.00;101374.75;5074379;28;20122;-81
2023/01/22 00:54:29;;;;;;;12.77;7.55;;;;;;;0.43;100.00;101263.94;5074381;28;20052;-80
2023/01/22 00:56:55;;;;;;;13.27;7.93;;;;;;;0.40;100.00;101263.91;5067122;28;20083;-81
2023/01/22 00:59:22;;;;;;;15.10;8.13;;;;;;;0.78;100.00;101329.38;5074620;28;20053;-81
2023/01/22 01:01:48;;;;;;;15.73;8.35;;;;;;;0.66;100.00;101304.06;5070187;28;20506;-82
2023/01/22 01:04:15;;;;;;;13.02;7.38;;;;;;;-0.05;100.00;101182.78;5065320;28;20040;-81
2023/01/22 01:06:42;;;;;;;14.57;8.45;;;;;;;0.59;100.00;101284.91;5064086;28;20070;-80
2023/01/22 01:09:09;;;;;;;13.85;8.50;;;;;;;-0.82;100.00;101047.66;5078540;28;20091;-80
2023/01/22 01:11:36;;;;;;;12.65;7.97;;;;;;;0.46;100.00;101259.63;5077246;28;20065;-80
2023/01/22 01:14:03;;;;;;;13.40;7.93;;;;;;;0.92;100.00;101335.56;5082966;28;20047;-81
2023/01/22 01:16:30;;;;;;;13.05;8.07;;;;;;;0.08;100.00;101195.91;5072107;28;20316;-83
2023/01/22 01:19:05;;;;;;;14.55;8.05;;;;;;;0.44;100.00;101274.38;5074431;28;20063;-81
2023/01/22 01:21:32;;;;;;;12.90;7.78;;;;;;;0.75;100.00;101324.13;5080389;28;20041;-81
2023/01/22 01:23:59;;;;;;;13.25;7.80;;;;;;;0.40;100.00;101266.50;5074294;28;20052;-81
2023/01/22 01:26:26;;;;;;;12.93;7.63;;;;;;;0.41;100.00;101260.44;5070708;28;20045;-80
2023/01/22 01:28:52;;;;;;;13.25;7.82;;;;;;;0.82;100.00;101326.78;5074627;28;20059;-80
2023/01/22 01:31:22;;;;;;;10.85;7.57;;;;;;;0.83;100.00;101325.91;5073112;28;20098;-80
2023/01/22 01:33:48;;;;;;;12.48;7.25;;;;;;;0.82;100.00;101333.72;5073576;28;20094;-81
2023/01/22 01:36:18;;;;;;;9.63;6.75;;;;;;;0.64;100.00;101287.53;5079722;28;20078;-80
2023/01/22 01:39:05;;;;;;;12.37;7.17;;;;;;;0.96;100.00;101363.38;5088599;28;20056;-80
2023/01/22 01:41:31;;;;;;;11.80;7.47;;;;;;;0.76;100.00;101321.53;5076267;28;20040;-80
2023/01/22 01:44:29;;;;;;;12.52;7.28;;;;;;;1.04;100.00;101359.13;5073411;28;20056;-80
2023/01/22 01:47:04;;;;;;;10.07;6.35;;;;;;;1.01;100.00;101346.03;5055034;28;20113;-80
2023/01/22 01:49:46;;;;;;;10.38;6.97;;;;;;;0.93;100.00;101337.31;5080023;28;20111;-81
2023/01/22 01:52:15;;;;;;;11.05;6.82;;;;;;;1.16;100.00;101372.22;5066445;28;20131;-81
2023/01/22 01:54:45;;;;;;;9.48;6.20;;;;;;;0.63;100.00;101264.97;5072805;28;20121;-83
2023/01/22 01:57:17;;;;;;;10.23;6.10;;;;;;;0.39;100.00;101242.19;5075845;28;20090;-79
2023/01/22 01:59:46;;;;;;;9.65;5.82;;;;;;;0.48;100.00;101246.56;5072983;28;20051;-79
2023/01/22 02:02:14;;;;;;;9.38;6.20;;;;;;;1.06;100.00;101339.13;5069669;28;20040;-83
2023/01/22 02:04:41;;;;;;;9.10;5.75;;;;;;;1.24;100.00;101359.25;5066440;28;20045;-80
2023/01/22 02:07:07;;;;;;;9.85;5.93;;;;;;;0.81;100.00;101301.56;5068144;28;20052;-81
2023/01/22 02:09:34;;;;;;;11.82;6.47;;;;;;;0.55;100.00;101266.63;5075195;28;20094;-80
2023/01/22 02:12:01;;;;;;;9.75;5.35;;;;;;;1.17;100.00;101357.47;5057401;28;20052;-80
2023/01/22 02:14:36;;;;;;;8.25;5.75;;;;;;;0.90;100.00;101322.50;5073283;28;20047;-83
2023/01/22 02:17:11;;;;;;;11.00;5.88;;;;;;;1.23;100.00;101357.50;5069916;28;20052;-81
2023/01/22 02:19:38;;;;;;;8.73;5.70;;;;;;;0.90;100.00;101295.56;5072721;28;20054;-81
2023/01/22 02:22:19;;;;;;;9.65;6.07;;;;;;;0.83;100.00;101293.75;5060928;28;20052;-81
2023/01/22 02:24:45;;;;;;;8.55;5.80;;;;;;;1.20;100.00;101360.09;5080963;28;20108;-81
2023/01/22 02:27:12;;;;;;;8.13;5.18;;;;;;;0.92;100.00;101318.19;5083204;28;20037;-83
2023/01/22 02:29:39;;;;;;;7.55;5.47;;;;;;;1.10;100.00;101338.31;5083283;28;20033;-80
2023/01/22 02:32:06;;;;;;;7.57;4.97;;;;;;;0.86;100.00;101305.09;5068251;28;20048;-80
2023/01/22 02:34:33;;;;;;;8.30;4.95;;;;;;;1.19;100.00;101366.16;5086132;28;20052;-79
2023/01/22 02:37:00;;;;;;;7.75;5.35;;;;;;;0.68;100.00;101271.94;5084991;28;20039;-81
2023/01/22 02:39:26;;;;;;;7.47;5.55;;;;;;;1.13;100.00;101342.63;5075839;28;20045;-82
2023/01/22 02:41:53;;;;;;;7.05;4.85;;;;;;;1.25;100.00;101356.66;5070884;28;20055;-81
2023/01/22 02:44:20;;;;;;;6.50;4.85;;;;;;;1.02;100.00;101333.00;5072604;28;20428;-82
2023/01/22 02:46:46;;;;;;;7.82;5.10;;;;;;;1.02;100.00;101333.00;5056899;28;20052;-80
2023/01/22 02:49:13;;;;;;;6.63;4.40;;;;;;;0.70;100.00;101272.81;5074290;28;20055;-81
2023/01/22 02:51:39;;;;;;;8.15;4.65;;;;;;;0.97;100.00;101319.06;5060421;28;20056;-80
2023/01/22 02:54:06;;;;;;;7.82;4.70;;;;;;;1.11;100.00;101326.97;5071643;28;20055;-82
2023/01/22 02:56:33;;;;;;;6.93;4.60;;;;;;;1.25;100.00;101361.88;5070906;28;20040;-80
2023/01/22 02:59:01;;;;;;;6.35;4.50;;;;;;;1.17;100.00;101333.97;5071223;28;20048;-81
2023/01/22 03:01:28;;;;;;;6.57;4.40;;;;;;;0.91;100.00;101313.81;5064443;28;20444;-81
2023/01/22 03:04:12;;;;;;;6.25;4.70;;;;;;;1.22;100.00;101345.31;5071707;28;20066;-80
2023/01/22 03:06:42;;;;;;;6.75;4.32;;;;;;;0.93;100.00;101319.06;5055956;28;20079;-82
2023/01/22 03:09:10;;;;;;;5.80;4.50;;;;;;;1.13;100.00;101353.06;5073525;28;20064;-81
2023/01/22 03:11:39;;;;;;;6.78;4.43;;;;;;;1.01;100.00;101326.06;5067824;28;20049;-81
2023/01/22 03:22:22;;;;;;;6.28;4.38;;;;;;;1.17;100.00;101342.69;5067575;28;20045;-84
2023/01/22 03:24:50;;;;;;;6.25;4.25;;;;;;;1.05;100.00;101320.00;5065033;28;20080;-86
2023/01/22 03:27:20;;;;;;;6.00;4.18;;;;;;;0.80;100.00;101281.56;5062463;28;20051;-84
2023/01/22 03:29:47;;;;;;;4.80;3.88;;;;;;;1.10;100.00;101340.03;5068244;28;20115;-85
2023/01/22 03:32:13;;;;;;;6.18;4.30;;;;;;;1.07;100.00;101340.88;5069422;28;20049;-84
2023/01/22 03:34:40;;;;;;;5.40;3.90;;;;;;;1.13;100.00;101337.41;5089282;28;20036;-85
2023/01/22 03:37:07;;;;;;;5.05;3.47;;;;;;;1.24;100.00;101357.53;5074905;28;20071;-83
2023/01/22 03:39:34;;;;;;;5.63;3.72;;;;;;;0.89;100.00;101293.81;5076405;28;20044;-84
2023/01/22 03:42:01;;;;;;;6.53;4.25;;;;;;;0.78;100.00;101285.06;5072564;28;20052;-83
2023/01/22 03:44:27;;;;;;;6.18;4.05;;;;;;;1.28;100.00;101367.09;5068543;28;20540;-83
2023/01/22 03:46:54;;;;;;;5.65;4.07;;;;;;;1.15;100.00;101333.09;5084512;28;20048;-83
2023/01/22 03:49:20;;;;;;;4.78;3.58;;;;;;;1.24;100.00;101362.75;5077707;28;20044;-83
2023/01/22 03:51:47;;;;;;;5.82;4.22;;;;;;;1.25;100.00;101366.22;5069625;28;20049;-84
2023/01/22 03:54:15;;;;;;;7.05;4.80;;;;;;;0.94;100.00;101313.84;5069645;28;20418;-84
2023/01/22 03:56:42;;;;;;;4.95;3.85;;;;;;;0.69;100.00;101262.38;5085117;28;20052;-84
2023/01/22 03:59:09;;;;;;;5.10;3.90;;;;;;;1.26;100.00;101341.88;5073170;28;20052;-85
2023/01/22 04:01:36;;;;;;;5.35;3.92;;;;;;;0.61;100.00;101246.72;5072450;28;20052;-85
2023/01/22 04:04:03;;;;;;;5.35;4.18;;;;;;;1.31;100.00;101354.06;5069322;28;20481;-84
2023/01/22 04:06:30;;;;;;;5.35;3.85;;;;;;;0.85;100.00;101266.84;5071491;28;20045;-86
2023/01/22 04:08:56;;;;;;;4.88;3.92;;;;;;;0.99;100.00;101304.31;5077374;28;20049;-80
2023/01/22 04:11:23;;;;;;;7.22;4.22;;;;;;;1.26;100.00;101367.97;5078468;28;20045;-81
2023/01/22 04:13:50;;;;;;;5.25;3.80;;;;;;;0.64;100.00;101261.47;5064874;28;20124;-81
2023/01/22 04:16:16;;;;;;;5.55;4.03;;;;;;;0.49;100.00;101233.56;5063955;28;20095;-81
2023/01/22 04:18:43;;;;;;;4.93;3.75;;;;;;;1.16;100.00;101355.72;5071139;28;20044;-81
2023/01/22 04:21:10;;;;;;;5.65;3.90;;;;;;;1.34;100.00;101374.09;5073956;28;20132;-81
2023/01/22 04:23:36;;;;;;;4.60;3.65;;;;;;;1.24;100.00;101364.47;5075430;28;20042;-80
2023/01/22 04:26:03;;;;;;;5.30;3.60;;;;;;;1.18;100.00;101351.38;5083086;28;20075;-82
2023/01/22 04:28:30;;;;;;;5.20;3.65;;;;;;;1.15;100.00;101346.13;5077221;28;20087;-82
2023/01/22 04:30:56;;;;;;;5.90;3.65;;;;;;;0.78;100.00;101293.75;5081200;28;20071;-83
2023/01/22 04:33:23;;;;;;;4.82;3.80;;;;;;;1.20;100.00;101354.88;5076344;28;20210;-80
2023/01/22 04:35:51;;;;;;;5.53;3.92;;;;;;;1.17;100.00;101342.69;5081751;28;20045;-81
2023/01/22 04:38:18;;;;;;;4.53;3.67;;;;;;;0.88;100.00;101300.75;5076730;28;20470;-81
2023/01/22 04:40:45;;;;;;;4.28;3.67;;;;;;;1.23;100.00;101360.13;5080138;28;20055;-82
2023/01/22 04:43:12;;;;;;;5.53;3.83;;;;;;;0.77;100.00;101284.19;5079006;28;20048;-81
2023/01/22 04:45:38;;;;;;;5.80;3.63;;;;;;;1.05;100.00;101333.03;5086424;28;20500;-80
2023/01/22 04:48:07;;;;;;;4.78;3.80;;;;;;;1.13;100.00;101340.03;5073210;28;20135;-80
2023/01/22 04:50:34;;;;;;;5.03;3.70;;;;;;;1.36;100.00;101380.19;5072551;28;20064;-81
2023/01/22 04:53:00;;;;;;;4.20;3.55;;;;;;;1.20;100.00;101360.09;5072890;28;20041;-82
2023/01/22 04:55:28;;;;;;;4.20;3.63;;;;;;;1.35;100.00;101384.53;5066646;28;20049;-82
2023/01/22 04:57:56;;;;;;;4.25;3.60;;;;;;;1.21;100.00;101354.00;5063594;28;20053;-83
2023/01/22 05:00:24;;;;;;;4.03;3.47;;;;;;;1.24;100.00;101344.47;5074371;28;20745;-82
2023/01/22 05:02:55;;;;;;;5.82;3.53;;;;;;;1.30;100.00;101372.31;5074427;28;20516;-83
2023/01/22 05:05:22;;;;;;;4.78;3.58;;;;;;;1.09;100.00;101326.13;5076062;28;20055;-81
2023/01/22 05:07:48;;;;;;;4.38;3.45;;;;;;;1.27;100.00;101362.72;5069993;28;20045;-81
2023/01/22 05:10:15;;;;;;;4.57;3.90;;;;;;;1.12;100.00;101346.97;5067098;28;20405;-82
2023/01/22 05:12:42;;;;;;;5.80;3.30;;;;;;;1.19;100.00;101355.72;5066831;28;20052;-83
2023/01/22 05:15:09;;;;;;;4.65;3.65;;;;;;;1.01;100.00;101323.44;5066582;28;20059;-82
2023/01/22 05:17:49;;;;;;;3.72;3.30;;;;;;;1.21;100.00;101362.72;5062204;28;20056;-83
2023/01/22 05:20:16;;;;;;;3.75;3.33;;;;;;;1.09;100.00;101338.28;5061059;28;20420;-84
2023/01/22 05:22:43;;;;;;;5.05;3.75;;;;;;;0.56;100.00;101251.00;5074932;28;20079;-83
2023/01/22 05:25:10;;;;;;;4.30;3.60;;;;;;;0.93;100.00;101321.66;5072525;28;20044;-81
2023/01/22 05:27:37;;;;;;;4.30;3.40;;;;;;;0.94;100.00;101313.84;5066900;28;20075;-81
2023/01/22 05:30:05;;;;;;;4.45;3.80;;;;;;;1.29;100.00;101379.28;5072137;28;20055;-80
2023/01/22 05:32:31;;;;;;;4.60;3.45;;;;;;;1.22;100.00;101363.59;5071686;28;20060;-81
2023/01/22 05:34:58;;;;;;;5.03;3.53;;;;;;;1.03;100.00;101329.56;5069737;28;20036;-81
2023/01/22 05:37:24;;;;;;;3.85;3.17;;;;;;;1.08;100.00;101334.81;5069690;28;20054;-80
2023/01/22 05:39:51;;;;;;;4.75;3.72;;;;;;;1.21;100.00;101361.84;5072488;28;20481;-81
2023/01/22 05:42:18;;;;;;;5.25;3.70;;;;;;;1.34;100.00;101381.91;5065807;28;20048;-81
2023/01/22 05:44:44;;;;;;;3.92;3.53;;;;;;;1.07;100.00;101340.00;5060042;28;20051;-82
2023/01/22 05:47:12;;;;;;;4.60;3.67;;;;;;;0.94;100.00;101321.69;5058953;28;20045;-81
2023/01/22 05:49:38;;;;;;;5.50;3.55;;;;;;;0.99;100.00;101333.00;5054401;28;20082;-81
2023/01/22 05:52:05;;;;;;;4.10;3.53;;;;;;;0.99;100.00;101332.13;5072479;28;20070;-82
2023/01/22 05:54:32;;;;;;;4.85;3.72;;;;;;;1.25;100.00;101381.88;5070015;28;20054;-82
2023/01/22 05:56:58;;;;;;;5.20;3.90;;;;;;;0.76;100.00;101286.78;5062245;28;20304;-81
2023/01/22 05:59:25;;;;;;;4.75;3.70;;;;;;;1.27;100.00;101381.00;5064283;28;20057;-82
2023/01/22 06:01:51;;;;;;;4.93;3.60;;;;;;;0.63;100.00;101259.75;5072126;28;20044;-81
2023/01/22 06:04:18;;;;;;;4.80;4.07;;;;;;;0.81;100.00;101300.69;5068974;28;20058;-80
2023/01/22 06:06:44;;;;;;;4.30;3.80;;;;;;;1.08;100.00;101332.19;5067069;28;20052;-80
2023/01/22 06:09:12;;;;;;;4.07;3.67;;;;;;;1.39;100.00;101394.16;5051759;28;20059;-80
2023/01/22 06:11:39;;;;;;;3.90;3.50;;;;;;;0.94;100.00;101326.03;5070301;28;20068;-81
2023/01/22 06:14:06;;;;;;;4.28;3.88;;;;;;;1.25;100.00;101384.50;5066226;28;20055;-81
2023/01/22 06:16:32;;;;;;;4.70;3.80;;;;;;;1.40;100.00;101419.38;5078694;28;20048;-81
2023/01/22 06:18:59;;;;;;;4.93;3.40;;;;;;;1.25;100.00;101379.25;5065924;28;20534;-81
2023/01/22 06:21:25;;;;;;;5.68;3.83;;;;;;;0.95;100.00;101318.19;5065494;28;20135;-81
2023/01/22 06:23:52;;;;;;;6.30;3.60;;;;;;;1.39;100.00;101401.09;5073706;28;20091;-82
2023/01/22 06:26:18;;;;;;;4.65;3.83;;;;;;;1.51;100.00;101411.63;5072989;28;20079;-81
2023/01/22 06:28:45;;;;;;;4.15;3.30;;;;;;;0.96;100.00;101329.47;5073743;28;20048;-82
2023/01/22 06:31:12;;;;;;;4.40;3.15;;;;;;;1.48;100.00;101408.09;5079688;28;20059;-83
2023/01/22 06:33:40;;;;;;;3.88;3.40;;;;;;;1.48;100.00;101422.03;5068495;28;20051;-82
2023/01/22 06:36:07;;;;;;;3.75;3.42;;;;;;;0.39;100.00;101241.31;5085619;28;20040;-83
2023/01/22 06:38:35;;;;;;;4.28;3.85;;;;;;;0.91;100.00;101328.59;5080738;28;20131;-83
2023/01/22 06:41:02;;;;;;;5.53;3.80;;;;;;;1.27;100.00;101401.88;5073208;28;20501;-82
2023/01/22 06:43:28;;;;;;;4.82;3.90;;;;;;;0.95;100.00;101338.16;5086064;28;20048;-82
2023/01/22 06:45:55;;;;;;;4.50;3.78;;;;;;;1.47;100.00;101424.63;5082830;28;20411;-81
2023/01/22 06:48:21;;;;;;;5.55;4.07;;;;;;;1.32;100.00;101400.19;5088499;28;20048;-81
2023/01/22 06:50:48;;;;;;;5.68;4.30;;;;;;;1.52;100.00;101434.25;5060062;28;20052;-81
2023/01/22 06:53:15;;;;;;;4.72;4.10;;;;;;;1.52;100.00;101435.97;5073208;28;20045;-82
2023/01/22 06:55:41;;;;;;;4.88;4.10;;;;;;;1.44;100.00;101422.88;5080330;28;21286;-81
2023/01/22 06:58:08;;;;;;;5.05;4.13;;;;;;;1.24;100.00;101399.25;5061912;28;20041;-82
2023/01/22 07:00:35;;;;;;;4.75;3.92;;;;;;;1.10;100.00;101379.16;5069862;28;20075;-81
2023/01/22 07:03:05;;;;;;;4.65;4.00;;;;;;;1.43;100.00;101428.94;5070245;28;20060;-82
2023/01/22 07:05:31;;;;;;;4.38;3.97;;;;;;;1.26;100.00;101399.28;5069438;28;20048;-81
2023/01/22 07:07:58;;;;;;;4.57;4.10;;;;;;;1.51;100.00;101453.38;5067241;28;20161;-81
2023/01/22 07:10:24;;;;;;;5.05;3.80;;;;;;;1.32;100.00;101409.75;5065879;28;20054;-81
2023/01/22 07:12:55;;;;;;;5.15;4.00;;;;;;;1.41;100.00;101433.31;5070698;28;20044;-81
2023/01/22 07:15:21;;;;;;;4.22;3.83;;;;;;;1.24;100.00;101411.44;5067316;28;20606;-83
2023/01/22 07:17:52;;;;;;;4.82;3.97;;;;;;;0.96;100.00;101353.81;5070919;28;20648;-84
2023/01/22 07:20:19;;;;;;;;;;;;;;;1.50;100.00;101456.84;5072558;28;20132;-83
2023/01/22 07:22:46;;;;;;;6.10;4.05;;;;;;;0.32;100.00;101280.31;5067044;28;19920;-79
2023/01/22 07:25:12;;;;;;;4.45;3.80;;;;;;;1.07;100.00;101413.03;5067841;28;20056;-81
2023/01/22 07:27:39;;;;;;;6.53;4.43;;;;;;;1.22;100.00;101434.03;5079296;28;20059;-82
2023/01/22 07:30:07;;;;;;;5.10;4.28;;;;;;;0.80;100.00;101369.34;5071728;28;20059;-82
2023/01/22 07:32:35;;;;;;;5.00;4.38;;;;;;;0.70;100.00;101364.06;5071761;28;20052;-81
2023/01/22 07:35:01;;;;;;;7.65;4.53;;;;;;;0.81;100.00;101386.72;5070762;28;20127;-82
2023/01/22 07:37:28;;;;;;;5.50;4.68;;;;;;;1.29;100.00;101482.78;5066897;28;20580;-80
2023/01/22 07:39:54;;;;;;;6.40;4.57;;;;;;;1.09;100.00;101442.63;5070411;28;20521;-80
2023/01/22 07:42:21;;;;;;;5.78;4.20;;;;;;;1.11;100.00;101456.53;5060145;28;20052;-81
2023/01/22 07:44:47;;;;;;;5.38;4.28;;;;;;;0.95;100.00;101419.88;5070578;28;20041;-80
2023/01/22 07:47:14;;;;;;;5.68;4.38;;;;;;;0.47;100.00;101342.16;5070938;28;20408;-80
2023/01/22 07:49:40;;;;;;;5.93;4.25;;;;;;;0.91;100.00;101420.75;5070628;28;20060;-80
2023/01/22 07:52:07;;;;;;;5.25;4.72;;;;;;;1.09;100.00;101463.50;5067513;28;20084;-80
2023/01/22 07:54:35;;;;;;;5.10;4.60;;;;;;;0.85;100.00;101428.50;5065550;28;20513;-80
2023/01/22 07:57:03;;;;;;;5.63;4.63;;;;;;;1.03;100.00;101444.31;5068027;28;20056;-79
2023/01/22 07:59:29;;;;;;;6.03;4.32;;;;;;;1.22;100.00;101475.78;5070388;28;20051;-80
2023/01/22 08:01:56;;;;;;;5.45;4.10;;;;;;;1.16;100.00;101463.53;5066364;28;20043;-80
2023/01/22 08:04:23;;;;;;;5.65;4.35;;;;;;;1.37;100.00;101504.59;5066121;28;20098;-79
2023/01/22 08:06:50;;;;;;;5.07;4.38;;;;;;;1.38;100.00;101507.22;5064573;28;20138;-79
2023/01/22 08:09:24;;;;;;;5.13;4.30;;;;;;;1.23;100.00;101473.19;5069527;28;20040;-80
2023/01/22 08:11:52;;;;;;;4.60;4.05;;;;;;;1.15;100.00;101464.41;5081624;28;20103;-81
2023/01/22 08:14:18;;;;;;;5.50;4.70;;;;;;;0.78;100.00;101397.16;5070447;28;20469;-82
2023/01/22 08:16:46;;;;;;;6.93;5.13;;;;;;;1.18;100.00;101464.44;5066867;28;20114;-82
2023/01/22 08:19:13;;;;;;;5.35;4.28;;;;;;;0.99;100.00;101432.09;5078921;28;20489;-81
2023/01/22 08:21:40;;;;;;;4.63;4.22;;;;;;;1.47;100.00;101508.16;5082390;28;20138;-80
2023/01/22 08:24:09;;;;;;;5.22;4.13;;;;;;;1.40;100.00;101509.84;5082352;28;20048;-81
2023/01/22 08:26:36;;;;;;;5.07;4.05;;;;;;;1.11;100.00;101466.97;5071738;28;20628;-81
2023/01/22 08:29:02;;;;;;;5.07;4.50;;;;;;;1.13;100.00;101453.06;5080798;28;20135;-80
2023/01/22 08:31:33;;;;;;;5.03;4.53;;;;;;;1.22;100.00;101470.56;5070170;28;20060;-79
2023/01/22 08:33:59;;;;;;;5.75;4.53;;;;;;;0.99;100.00;101437.31;5070028;28;20136;-79
2023/01/22 08:36:26;;;;;;;5.78;4.60;;;;;;;1.35;100.00;101488.06;5073671;28;20052;-81
2023/01/22 08:38:53;;;;;;;5.15;4.65;;;;;;;1.50;100.00;101529.94;5065491;28;20075;-79
2023/01/22 08:41:20;;;;;;;5.30;4.80;;;;;;;1.03;100.00;101449.53;5071627;28;20507;-80
2023/01/22 08:43:47;;;;;;;5.32;4.82;;;;;;;1.53;100.00;101522.13;5073323;28;20056;-79
2023/01/22 08:46:14;;;;;;;4.97;4.18;;;;;;;1.06;100.00;101446.06;5073573;28;20044;-79
2023/01/22 08:48:42;;;;;;;6.57;4.90;;;;;;;1.43;100.00;101502.03;5068233;28;20049;-79
2023/01/22 08:51:11;;;;;;;7.50;4.70;;;;;;;1.59;100.00;101532.59;5072069;28;20048;-80
2023/01/22 08:53:38;;;;;;;5.72;4.82;;;;;;;1.60;100.00;101542.19;5072849;28;20075;-81
2023/01/22 08:56:05;;;;;;;6.00;4.72;;;;;;;1.58;100.00;101529.97;5081444;28;20135;-81
2023/01/22 08:58:32;;;;;;;4.88;4.30;;;;;;;0.42;100.00;101332.53;5073915;28;20056;-81
2023/01/22 09:00:58;;;;;;;5.47;4.50;;;;;;;1.56;100.00;101514.34;5068864;28;20135;-80
2023/01/22 09:03:25;;;;;;;5.68;5.07;;;;;;;0.86;100.00;101372.00;5074232;28;20061;-80
2023/01/22 09:05:52;;;;;;;5.88;4.80;;;;;;;1.69;100.00;101520.50;5088311;28;20132;-81
2023/01/22 09:08:19;;;;;;;4.97;4.22;;;;;;;1.91;100.00;101537.19;5079106;28;20056;-81
2023/01/22 09:10:45;;;;;;;5.78;4.80;;;;;;;1.28;100.00;101418.41;5078205;28;20143;-81
2023/01/22 09:13:12;;;;;;;6.80;5.22;;;;;;;1.35;100.00;101441.97;5074615;28;20117;-80
2023/01/22 09:15:39;;;;;;;5.88;5.05;;;;;;;1.74;100.00;101505.72;5085391;28;20055;-80
2023/01/22 09:18:06;;;;;;;6.25;4.80;;;;;;;1.62;100.00;101480.41;5085673;28;20049;-81
2023/01/22 09:20:36;;;;;;;6.20;4.78;;;;;;;1.87;100.00;101525.00;5088467;28;20056;-80
2023/01/22 09:23:03;;;;;;;6.60;4.80;;;;;;;1.70;100.00;101509.22;5086289;28;20044;-79
2023/01/22 09:25:29;;;;;;;5.88;4.88;;;;;;;1.57;100.00;101494.31;5082141;28;20051;-79
2023/01/22 09:27:58;;;;;;;5.60;4.57;;;;;;;1.96;100.00;101552.03;5056590;28;20054;-79
2023/01/22 09:30:26;;;;;;;6.03;4.90;;;;;;;1.67;100.00;101496.13;5073662;28;20508;-79
2023/01/22 09:32:53;;;;;;;4.95;4.45;;;;;;;1.96;100.00;101546.81;5070863;28;20048;-80
2023/01/22 09:35:19;;;;;;;5.05;4.28;;;;;;;1.98;100.00;101544.22;5070778;28;20045;-81
2023/01/22 09:37:46;;;;;;;5.18;4.45;;;;;;;2.11;100.00;101569.53;5074255;28;20492;-81
2023/01/22 09:40:26;;;;;;;5.57;4.60;;;;;;;2.14;100.00;101564.34;5067361;28;20052;-80
2023/01/22 09:43:05;;;;;;;4.68;4.20;;;;;;;1.21;100.00;101403.59;5066637;28;20040;-80
2023/01/22 09:45:37;;;;;;;4.65;4.13;;;;;;;1.29;100.00;101425.38;5064790;28;20148;-81
2023/01/22 09:48:10;;;;;;;6.43;4.63;;;;;;;1.95;100.00;101536.34;5065355;28;20048;-81
2023/01/22 09:50:37;;;;;;;5.43;4.28;;;;;;;1.95;100.00;101542.44;5064090;28;20049;-80
2023/01/22 09:53:06;;;;;;;4.82;4.20;;;;;;;2.08;100.00;101564.28;5067210;28;20132;-81
2023/01/22 09:55:39;;;;;;;5.72;3.95;;;;;;;1.09;100.00;101421.75;5069925;28;20072;-80
2023/01/22 09:58:13;;;;;;;5.57;3.90;;;;;;;1.70;100.00;101528.34;5059846;28;20561;-81
2023/01/22 10:01:00;;;;;;;4.85;4.30;;;;;;;1.43;100.00;101478.53;5077474;28;20058;-81
2023/01/22 10:03:38;;;;;;;4.90;4.40;;;;;;;1.69;100.00;101531.84;5072310;28;20044;-83
2023/01/22 10:06:12;;;;;;;4.95;4.22;;;;;;;2.00;100.00;101579.06;5060883;28;20066;-82
2023/01/22 10:09:06;;;;;;;4.63;4.07;;;;;;;2.03;100.00;101573.84;5066355;28;20051;-80
2023/01/22 10:11:33;;;;;;;4.30;3.90;;;;;;;1.56;100.00;101503.91;5072204;28;20056;-82
2023/01/22 10:14:01;;;;;;;5.50;4.20;;;;;;;2.02;100.00;101579.94;5062638;28;20044;-81
2023/01/22 10:16:28;;;;;;;4.97;4.28;;;;;;;2.01;100.00;101576.47;5071521;28;20044;-81
2023/01/22 10:19:10;;;;;;;5.40;4.10;;;;;;;2.05;100.00;101570.38;5071954;28;20435;-80
2023/01/22 10:21:44;;;;;;;4.43;3.90;;;;;;;2.18;100.00;101586.16;5062998;28;20061;-81
2023/01/22 10:24:11;;;;;;;4.90;4.40;;;;;;;2.07;100.00;101565.16;5071697;28;20056;-80
2023/01/22 10:26:40;;;;;;;5.85;4.57;;;;;;;2.19;100.00;101573.09;5071533;28;20056;-79
2023/01/22 10:29:31;;;;;;;4.68;4.18;;;;;;;2.23;100.00;101572.22;5072152;28;20052;-81
2023/01/22 10:32:00;;;;;;;5.30;4.78;;;;;;;2.25;100.00;101577.47;5052987;28;20131;-80
2023/01/22 10:34:31;;;;;;;8.75;6.13;;;;;;;1.87;100.00;101511.94;5069787;28;20053;-80
2023/01/22 10:37:09;;;;;;;7.07;4.95;;;;;;;2.25;100.00;101580.06;5071783;28;20049;-80
2023/01/22 10:39:43;;;;;;;5.05;4.35;;;;;;;2.25;100.00;101587.91;5067679;28;20059;-80
2023/01/22 10:42:18;;;;;;;5.30;4.28;;;;;;;2.24;100.00;101578.31;5068777;28;20079;-80
2023/01/22 10:44:45;;;;;;;5.15;4.22;;;;;;;2.02;100.00;101551.22;5080068;28;20048;-81
2023/01/22 10:47:22;;;;;;;5.93;4.47;;;;;;;2.04;100.00;101552.09;5067887;28;20055;-81
2023/01/22 10:50:04;;;;;;;5.10;4.53;;;;;;;1.42;100.00;101439.41;5063531;28;20162;-80
2023/01/22 10:52:43;;;;;;;5.13;4.15;;;;;;;2.36;100.00;101584.50;5062350;28;20052;-81
2023/01/22 10:55:21;;;;;;;5.43;4.45;;;;;;;2.27;100.00;101560.94;5077001;28;20044;-81
2023/01/22 10:57:54;;;;;;;6.93;4.20;;;;;;;1.69;100.00;101455.25;5080554;28;20075;-80
2023/01/22 11:00:28;;;;;;;5.65;4.55;;;;;;;1.84;100.00;101491.00;5052416;28;20052;-81
2023/01/22 11:03:35;;;;;;;5.18;4.07;;;;;;;1.91;100.00;101490.16;5064846;28;20086;-81
2023/01/22 11:06:14;;;;;;;4.50;4.10;;;;;;;2.44;100.00;101600.22;5067120;28;20040;-80
2023/01/22 11:09:05;;;;;;;4.50;4.10;;;;;;;1.56;100.00;101440.38;5063785;28;20129;-81
2023/01/22 11:11:38;;;;;;;4.80;4.07;;;;;;;2.36;100.00;101581.88;5049579;28;20060;-80
2023/01/22 11:14:19;;;;;;;5.75;4.28;;;;;;;1.49;100.00;101426.38;5072652;28;20107;-81
2023/01/22 11:16:50;;;;;;;5.53;4.15;;;;;;;1.93;100.00;101498.88;5070960;28;20452;-80
2023/01/22 11:19:19;;;;;;;6.47;4.25;;;;;;;2.49;100.00;101581.97;5053962;28;20052;-79
2023/01/22 11:22:05;;;;;;;5.28;4.35;;;;;;;2.24;100.00;101540.00;5079519;28;20048;-81
2023/01/22 11:24:34;;;;;;;7.83;6.00;;;;;;;2.62;100.00;101589.00;5065733;28;20057;-80
2023/01/22 11:27:30;;;;;;;5.78;3.80;;;;;;;2.70;100.00;101582.03;5048360;28;20041;-82
2023/01/22 11:30:33;;;;;;;4.38;3.78;;;;;;;2.58;100.00;101563.69;5090316;28;20051;-81
2023/01/22 11:33:13;;;;;;;4.72;3.90;;;;;;;2.58;100.00;101559.34;5075082;28;20048;-81
2023/01/22 11:35:48;;;;;;;4.95;3.70;;;;;;;2.63;100.00;101589.00;5083335;28;20599;-80
2023/01/22 11:38:29;;;;;;;5.35;4.07;;;;;;;2.53;100.00;101586.31;5072051;28;20052;-80
2023/01/22 11:41:05;;;;;;;4.82;4.32;;;;;;;2.48;100.00;101588.94;5069641;28;20516;-82